Alanson, Michigan
Current Conditions -  °F | °C
As of 11:15 PM on Sunday 23 Nov 2014 (Local Time) from KMGN Reporting Station
Light Rain Light Rain  
Wind Chill:   Ceiling: 5000
Heat Index:   Visibility: 5mi
Dew Point:   Wind: 9mph
Humidity: 99%   Direction: 60°ENE
Pressure: 29.31"   Gusts: NA
Location:  45.44°N, 84.79°W
Report Text: KMGN 240415Z AUTO 06008KT 5SM -RA SCT012 BKN050 OVC070 06/06 A2931 RMK AO2 T00600059
Loading
Personal Weather Stations






























Interactive Weather Map New forecast layout! Learn more

10-Day Weather Forecast

Advertisements
Track Severe Weather on mobile